Portada
METAR-TAF:

METAR-TAF

Aeroports :

Kilimanjaro, Tanzània

latitud: 03-25S, longitud: 037-04E, altitud: 891 m

Observació

L'informe es va fer fa 58 minuts, a les 20:00 UTC
Vent 10 kt del Est
Temperatura 21°C
Humitat 69%
Pressió 1021 hPa
Visibilitat 10 km o més
Cel ennuvolat a una alçada de 2400 ft

METAR: HTKJ 012000Z 09010KT 9999 BKN024 21/15 Q1021 NOSIG

Hora: 23:58 (20:58 UTC)

Pronòstic

L'informe es va fer fa 3 hores i 58 minuts, a les 17:00 UTC
Pronòstic vàlid del 01 a les 18 UTC al 02 a les 18 UTC
Vent 10 kt del Est/Nord-Est
Visibilitat 10 km o més
Núvols disperses a una alçada de 2500 ft
Evolucionant progressivament
l' 02 a les 00 UTC al 02 a les 03 UTC
Vent kt del Nord
Cel ennuvolat a una alçada de 1800 ft
Probabilitat %
entre 30 i UTC
Temporalment
l' 02 a les 11 UTC al 02 a les 16 UTC
Vent 15 kt del Est
Escasses núvols a una alçada de 3500 ft

TAF: HTKJ 011700Z 0118/0218 07010KT 9999 SCT025 BECMG 0200/0203 00000KT BKN018 PROB 30 TEMPO 0211/0216 09015KT FEW035

Observacions i pronòstics meteorològics de més de 4000 aeroports (METAR i TAF).

Les estacions disponibles són els punts grocs i vermells al mapa.

Posi el ratolí al punt desitjat per veure el nom de l'estació.

Feu clic per veure les observacions i els pronòstics meteorològics.

Per canviar el mapa: feu clic els botons verds amb una creu de color negre per apropar; al botó verd amb un guió per allunyar la imatge; o en les fletxes verdes per a mapes adjacents.


METAR-TAF: